createdAt,value
2018-11-25T00:01:52.950Z,44.48
2018-11-25T00:04:22.876Z,46.45
2018-11-25T00:06:52.819Z,48.48
2018-11-25T00:09:22.679Z,45.48
2018-11-25T00:11:52.603Z,49.88
2018-11-25T00:14:22.515Z,45.75
2018-11-25T00:16:53.347Z,46.15
2018-11-25T00:19:23.219Z,47.25
2018-11-25T00:21:54.107Z,42.65
2018-11-25T00:24:24.007Z,47.33
2018-11-25T00:26:53.959Z,46.18
2018-11-25T00:29:23.835Z,45.65
2018-11-25T00:31:54.695Z,46.50
2018-11-25T00:34:24.591Z,46.35
2018-11-25T00:36:54.534Z,47.15
2018-11-25T00:39:24.431Z,46.95
2018-11-25T00:41:54.364Z,47.62
2018-11-25T00:44:24.291Z,48.50
2018-11-25T00:46:54.223Z,44.73
2018-11-25T00:49:28.856Z,47.83
2018-11-25T00:51:58.719Z,42.75
2018-11-25T00:54:28.983Z,45.60
2018-11-25T00:56:59.851Z,47.93
2018-11-25T00:59:29.807Z,47.05
2018-11-25T01:02:00.615Z,51.08
2018-11-25T01:04:31.447Z,43.42
2018-11-25T01:07:01.396Z,42.80
2018-11-25T01:09:32.344Z,45.55
2018-11-25T01:12:02.232Z,45.88
2018-11-25T01:14:32.123Z,40.98
2018-11-25T01:17:02.053Z,41.30
2018-11-25T01:19:31.955Z,39.30
2018-11-25T01:22:01.985Z,44.98
2018-11-25T01:24:31.911Z,44.10
2018-11-25T01:27:01.795Z,42.62
2018-11-25T01:29:31.660Z,41.55
2018-11-25T01:32:04.613Z,41.10
2018-11-25T01:34:34.506Z,41.37
2018-11-25T01:37:04.800Z,40.00
2018-11-25T01:39:34.664Z,39.20
2018-11-25T01:42:05.615Z,39.70
2018-11-25T01:44:35.492Z,38.65
2018-11-25T01:47:06.560Z,38.63
2018-11-25T01:49:36.480Z,38.25
2018-11-25T01:52:07.596Z,38.55
2018-11-25T01:54:37.488Z,37.83
2018-11-25T01:57:08.380Z,38.25
2018-11-25T01:59:39.301Z,41.10
2018-11-25T02:02:09.209Z,40.80
2018-11-25T02:04:44.452Z,41.50
2018-11-25T02:07:18.571Z,39.67
2018-11-25T02:09:49.472Z,46.05
2018-11-25T02:12:20.348Z,46.10
2018-11-25T02:14:50.231Z,42.25
2018-11-25T02:17:22.131Z,46.60
2018-11-25T02:19:52.024Z,45.65
2018-11-25T02:22:21.840Z,53.92
2018-11-25T02:24:51.704Z,46.33
2018-11-25T02:27:21.532Z,47.43
2018-11-25T02:29:51.472Z,46.85
2018-11-25T02:32:21.376Z,44.73
2018-11-25T02:34:52.188Z,53.65
2018-11-25T02:37:22.112Z,49.77
2018-11-25T02:39:52.968Z,50.28
2018-11-25T02:42:22.884Z,47.27
2018-11-25T02:44:54.716Z,50.80
2018-11-25T02:47:25.575Z,42.17
2018-11-25T02:50:00.488Z,51.10
2018-11-25T02:52:31.276Z,48.05
2018-11-25T02:55:01.156Z,48.50
2018-11-25T02:57:34.204Z,52.73
2018-11-25T03:00:05.120Z,40.95
2018-11-25T03:02:38.643Z,43.50
2018-11-25T03:05:09.564Z,54.73
2018-11-25T03:07:41.456Z,48.98
2018-11-25T03:10:12.388Z,54.93
2018-11-25T03:12:43.230Z,49.00
2018-11-25T03:15:26.192Z,51.65
2018-11-25T03:17:56.040Z,55.20
2018-11-25T03:20:33.073Z,49.45
2018-11-25T03:23:02.972Z,48.23
2018-11-25T03:25:34.852Z,46.85
2018-11-25T03:28:09.432Z,51.25
2018-11-25T03:30:39.424Z,44.80
2018-11-25T03:33:10.312Z,43.75
2018-11-25T03:35:41.246Z,41.33
2018-11-25T03:38:15.209Z,43.95
2018-11-25T03:40:45.064Z,48.80
2018-11-25T03:43:14.920Z,42.45
2018-11-25T03:45:45.792Z,39.92
2018-11-25T03:48:15.712Z,45.75
2018-11-25T03:50:47.592Z,46.13
2018-11-25T03:53:17.460Z,46.35
2018-11-25T03:55:48.333Z,51.23
2018-11-25T03:58:18.296Z,38.55
2018-11-25T04:00:49.212Z,41.92
2018-11-25T04:03:20.132Z,40.63
2018-11-25T04:05:51.981Z,40.28
2018-11-25T04:08:23.860Z,43.63
2018-11-25T04:10:54.257Z,50.83
2018-11-25T04:13:26.120Z,47.30
2018-11-25T04:15:57.260Z,41.15
2018-11-25T04:18:28.097Z,48.63
2018-11-25T04:20:58.935Z,45.43
2018-11-25T04:23:29.772Z,49.55
2018-11-25T04:25:59.740Z,46.18
2018-11-25T04:28:30.620Z,50.08
2018-11-25T04:31:02.551Z,44.10
2018-11-25T04:33:36.069Z,46.23
2018-11-25T04:36:06.025Z,41.63
2018-11-25T04:38:37.865Z,42.03
2018-11-25T04:41:07.783Z,41.10
2018-11-25T04:43:43.728Z,47.30
2018-11-25T04:46:14.560Z,42.27
2018-11-25T04:48:48.465Z,42.83
2018-11-25T04:51:18.433Z,39.10
2018-11-25T04:53:49.304Z,44.53
2018-11-25T04:56:26.512Z,41.53
2018-11-25T04:58:58.346Z,38.05
2018-11-25T05:01:32.580Z,31.62
2018-11-25T05:04:02.385Z,39.95
2018-11-25T05:06:34.224Z,39.40
2018-11-25T05:09:08.008Z,38.02
2018-11-25T05:11:38.893Z,35.92
2018-11-25T05:14:09.704Z,32.67
2018-11-25T05:16:40.549Z,33.60
2018-11-25T05:19:11.344Z,31.85
2018-11-25T05:21:41.204Z,29.40
2018-11-25T05:24:17.024Z,30.12
2018-11-25T05:26:47.861Z,29.35
2018-11-25T05:29:46.282Z,28.42
2018-11-25T05:32:18.137Z,25.48
2018-11-25T05:34:47.942Z,27.40
2018-11-25T05:37:17.884Z,31.00
2018-11-25T05:39:47.792Z,28.05
2018-11-25T05:42:25.792Z,28.02
2018-11-25T05:44:56.085Z,29.20
2018-11-25T05:47:29.505Z,26.57
2018-11-25T05:50:00.356Z,29.80
2018-11-25T05:52:33.920Z,32.08
2018-11-25T05:55:03.948Z,32.08
2018-11-25T05:57:40.348Z,27.80
2018-11-25T06:00:22.608Z,29.30
2018-11-25T06:02:53.424Z,27.60
2018-11-25T06:05:24.184Z,26.52
2018-11-25T06:07:54.984Z,27.22
2018-11-25T06:10:28.956Z,28.57
2018-11-25T06:13:03.897Z,31.35
2018-11-25T06:15:37.972Z,29.10
2018-11-25T06:18:07.892Z,29.23
2018-11-25T06:20:38.723Z,29.52
2018-11-25T06:23:09.560Z,32.67
2018-11-25T06:25:39.507Z,28.95
2018-11-25T06:28:09.397Z,27.90
2018-11-25T06:30:42.673Z,32.78
2018-11-25T06:33:12.617Z,32.03
2018-11-25T06:35:44.472Z,30.10
2018-11-25T06:38:22.372Z,30.68
2018-11-25T06:40:52.185Z,32.58
2018-11-25T06:43:26.589Z,32.65
2018-11-25T06:45:56.485Z,31.20
2018-11-25T06:48:26.404Z,29.92
2018-11-25T06:50:57.256Z,29.52
2018-11-25T06:53:27.152Z,30.82
2018-11-25T06:55:56.972Z,29.82
2018-11-25T06:58:26.892Z,31.57
2018-11-25T07:01:00.845Z,34.00
2018-11-25T07:03:31.722Z,32.85
2018-11-25T07:06:02.392Z,30.15
2018-11-25T07:08:35.955Z,30.95
2018-11-25T07:11:05.888Z,35.88
2018-11-25T07:13:37.732Z,34.00
2018-11-25T07:16:08.229Z,32.35
2018-11-25T07:18:39.108Z,38.23
2018-11-25T07:21:10.117Z,37.28
2018-11-25T07:23:39.969Z,37.05
2018-11-25T07:26:10.927Z,33.73
2018-11-25T07:28:40.892Z,35.98
2018-11-25T07:31:10.849Z,36.35
2018-11-25T07:33:40.767Z,36.38
2018-11-25T07:36:12.661Z,40.67
2018-11-25T07:38:42.524Z,41.37
2018-11-25T07:41:12.413Z,39.03
2018-11-25T07:43:42.345Z,39.42
2018-11-25T07:46:17.205Z,41.48
2018-11-25T07:48:48.064Z,37.85
2018-11-25T07:51:18.041Z,38.98
2018-11-25T07:53:48.961Z,41.25
2018-11-25T07:56:21.025Z,39.75
2018-11-25T07:58:52.848Z,40.12
2018-11-25T08:01:22.769Z,40.70
2018-11-25T08:03:53.621Z,41.02
2018-11-25T08:06:30.737Z,41.08
2018-11-25T08:09:01.820Z,41.13
2018-11-25T08:11:32.718Z,37.40
2018-11-25T08:14:12.845Z,42.25
2018-11-25T08:16:43.160Z,42.85
2018-11-25T08:19:12.985Z,43.25
2018-11-25T08:21:44.876Z,40.25
2018-11-25T08:24:14.753Z,43.87
2018-11-25T08:26:44.684Z,44.95
2018-11-25T08:29:14.545Z,41.90
2018-11-25T08:31:48.233Z,43.60
2018-11-25T08:34:19.121Z,41.45
2018-11-25T08:36:49.041Z,40.23
2018-11-25T08:39:18.921Z,38.50
2018-11-25T08:41:48.765Z,43.28
2018-11-25T08:44:18.666Z,39.88
2018-11-25T08:46:48.568Z,42.20
2018-11-25T08:49:18.493Z,41.28
2018-11-25T08:51:48.429Z,38.02
2018-11-25T08:54:18.316Z,35.80
2018-11-25T08:56:48.185Z,36.60
2018-11-25T08:59:20.106Z,36.13
2018-11-25T09:01:50.993Z,35.15
2018-11-25T09:04:20.845Z,33.45
2018-11-25T09:06:57.197Z,33.90
2018-11-25T09:09:28.073Z,31.23
2018-11-25T09:12:02.058Z,31.27
2018-11-25T09:14:32.941Z,31.20
2018-11-25T09:17:02.824Z,29.87
2018-11-25T09:19:33.760Z,29.63
2018-11-25T09:22:03.913Z,30.05
2018-11-25T09:24:36.721Z,30.50
2018-11-25T09:27:07.571Z,32.67
2018-11-25T09:29:40.885Z,31.57
2018-11-25T09:32:11.713Z,28.57
2018-11-25T09:34:43.569Z,30.50
2018-11-25T09:37:13.405Z,29.87
2018-11-25T09:39:46.916Z,31.80
2018-11-25T09:42:28.905Z,29.80
2018-11-25T09:44:58.853Z,30.15
2018-11-25T09:47:32.297Z,29.23
2018-11-25T09:50:02.212Z,29.25
2018-11-25T09:52:32.173Z,30.85
2018-11-25T09:55:04.233Z,37.33
2018-11-25T09:57:35.037Z,33.53
2018-11-25T10:00:17.445Z,33.73
2018-11-25T10:02:47.378Z,34.95
2018-11-25T10:05:18.204Z,33.88
2018-11-25T10:07:49.145Z,33.65
2018-11-25T10:10:20.441Z,33.33
2018-11-25T10:12:51.537Z,32.85
2018-11-25T10:15:28.907Z,33.08
2018-11-25T10:18:00.068Z,33.60
2018-11-25T10:20:31.545Z,33.78
2018-11-25T10:23:02.429Z,30.62
2018-11-25T10:25:32.273Z,30.57
2018-11-25T10:28:07.665Z,27.90
2018-11-25T10:30:37.585Z,28.57
2018-11-25T10:33:10.801Z,30.62
2018-11-25T10:35:45.797Z,26.05
2018-11-25T10:38:15.743Z,22.15
2018-11-25T10:40:46.645Z,26.10
2018-11-25T10:43:16.785Z,25.15
2018-11-25T10:45:50.808Z,23.30
2018-11-25T10:48:20.821Z,24.12
2018-11-25T10:50:51.845Z,23.60
2018-11-25T10:53:22.685Z,22.93
2018-11-25T10:55:53.699Z,23.65
2018-11-25T10:58:25.853Z,25.45
2018-11-25T11:01:03.269Z,23.05
2018-11-25T11:03:38.777Z,22.95
2018-11-25T11:06:17.637Z,23.45
2018-11-25T11:08:49.428Z,25.05
2018-11-25T11:11:21.254Z,25.12
2018-11-25T11:13:55.958Z,23.80
2018-11-25T11:16:27.025Z,20.82
2018-11-25T11:18:58.893Z,23.60
2018-11-25T11:21:29.805Z,20.97
2018-11-25T11:24:01.681Z,20.43
2018-11-25T11:26:37.269Z,20.45
2018-11-25T11:29:10.505Z,18.82
2018-11-25T11:31:54.301Z,21.77
2018-11-25T11:34:35.262Z,19.62
2018-11-25T11:37:11.053Z,18.48
2018-11-25T11:39:42.833Z,19.42
2018-11-25T11:42:12.649Z,18.10
2018-11-25T11:44:42.581Z,17.42
2018-11-25T11:47:17.549Z,18.48
2018-11-25T11:49:47.433Z,18.65
2018-11-25T11:52:17.341Z,19.00
2018-11-25T11:54:47.136Z,17.73
2018-11-25T11:57:17.057Z,16.80
2018-11-25T11:59:46.997Z,15.75
2018-11-25T12:02:20.185Z,16.87
2018-11-25T12:04:51.965Z,16.52
2018-11-25T12:07:22.908Z,15.55
2018-11-25T12:09:53.793Z,14.07
2018-11-25T12:12:23.805Z,12.20
2018-11-25T12:14:53.745Z,13.35
2018-11-25T12:17:24.625Z,12.07
2018-11-25T12:20:04.650Z,13.43
2018-11-25T12:22:35.454Z,13.05
2018-11-25T12:25:11.790Z,12.37
2018-11-25T12:27:42.700Z,12.18
2018-11-25T12:30:14.061Z,11.05
2018-11-25T12:32:47.913Z,10.58
2018-11-25T12:35:18.357Z,12.20
2018-11-25T12:37:48.217Z,11.80
2018-11-25T12:40:21.473Z,12.07
2018-11-25T12:42:56.426Z,11.45
2018-11-25T12:45:31.809Z,10.90
2018-11-25T12:48:02.686Z,10.90
2018-11-25T12:50:38.197Z,10.90
2018-11-25T12:53:08.104Z,11.20
2018-11-25T12:55:37.971Z,10.18
2018-11-25T12:58:09.778Z,10.05
2018-11-25T13:00:42.015Z,11.25
2018-11-25T13:03:13.595Z,11.33
2018-11-25T13:05:46.242Z,11.38
2018-11-25T13:08:15.565Z,12.15
2018-11-25T13:10:45.585Z,12.28
2018-11-25T13:13:15.521Z,12.93
2018-11-25T13:15:46.437Z,13.00
2018-11-25T13:18:16.354Z,13.93
2018-11-25T13:20:46.181Z,12.88
2018-11-25T13:23:17.102Z,12.68
2018-11-25T13:25:53.381Z,11.85
2018-11-25T13:28:23.391Z,14.07
2018-11-25T13:30:54.293Z,12.05
2018-11-25T13:33:26.078Z,13.13
2018-11-25T13:35:57.930Z,11.40
2018-11-25T13:38:27.729Z,12.73
2018-11-25T13:40:57.694Z,11.70
2018-11-25T13:43:28.625Z,13.83
2018-11-25T13:46:01.429Z,13.48
2018-11-25T13:48:31.321Z,11.68
2018-11-25T13:51:05.795Z,11.53
2018-11-25T13:53:40.015Z,12.05
2018-11-25T13:56:11.778Z,12.35
2018-11-25T13:58:41.590Z,10.75
2018-11-25T14:01:12.416Z,13.22
2018-11-25T14:03:43.061Z,11.93
2018-11-25T14:06:15.066Z,11.18
2018-11-25T14:08:49.574Z,11.93
2018-11-25T14:11:19.353Z,12.82
2018-11-25T14:13:50.210Z,12.07
2018-11-25T14:16:21.329Z,12.03
2018-11-25T14:18:52.179Z,13.18
2018-11-25T14:21:22.154Z,13.85
2018-11-25T14:23:55.426Z,13.60
2018-11-25T14:26:32.133Z,12.40
2018-11-25T14:29:03.046Z,14.03
2018-11-25T14:31:32.877Z,15.18
2018-11-25T14:34:02.766Z,13.58
2018-11-25T14:36:36.193Z,15.40
2018-11-25T14:39:12.013Z,16.25
2018-11-25T14:41:42.929Z,16.20
2018-11-25T14:44:12.858Z,15.43
2018-11-25T14:46:42.754Z,17.37
2018-11-25T14:49:13.705Z,16.77
2018-11-25T14:51:45.981Z,17.98
2018-11-25T14:54:16.889Z,17.17
2018-11-25T14:56:46.929Z,20.43
2018-11-25T14:59:16.958Z,18.48
2018-11-25T15:01:46.938Z,18.77
2018-11-25T15:04:17.841Z,19.30
2018-11-25T15:06:47.658Z,18.67
2018-11-25T15:09:18.501Z,19.02
2018-11-25T15:11:48.465Z,19.85
2018-11-25T15:14:19.403Z,19.23
2018-11-25T15:16:49.258Z,19.90
2018-11-25T15:19:20.066Z,20.23
2018-11-25T15:21:49.922Z,20.65
2018-11-25T15:24:21.785Z,20.72
2018-11-25T15:26:52.629Z,20.43
2018-11-25T15:29:22.484Z,20.40
2018-11-25T15:31:52.361Z,20.00
2018-11-25T15:34:24.152Z,20.60
2018-11-25T15:36:54.098Z,21.70
2018-11-25T15:39:23.964Z,36.70
2018-11-25T15:41:53.821Z,22.42
2018-11-25T15:44:26.625Z,24.92
2018-11-25T15:46:58.716Z,28.20
2018-11-25T15:49:27.302Z,83.90
2018-11-25T15:51:57.190Z,35.80
2018-11-25T15:54:32.280Z,25.97
2018-11-25T15:57:02.197Z,22.82
2018-11-25T15:59:32.058Z,29.02
2018-11-25T16:02:06.017Z,16.30
2018-11-25T16:04:39.154Z,17.62
2018-11-25T16:07:10.015Z,16.07
2018-11-25T16:09:41.885Z,16.20
2018-11-25T16:12:12.774Z,13.93
2018-11-25T16:14:46.989Z,14.83
2018-11-25T16:17:17.831Z,24.85
2018-11-25T16:19:47.749Z,20.70
2018-11-25T16:22:18.574Z,13.85
2018-11-25T16:24:49.395Z,14.50
2018-11-25T16:27:21.962Z,15.30
2018-11-25T16:29:54.878Z,15.30
2018-11-25T16:32:26.762Z,15.13
2018-11-25T16:35:01.059Z,17.30
2018-11-25T16:37:31.894Z,13.75
2018-11-25T16:40:04.118Z,13.28
2018-11-25T16:42:33.934Z,14.58
2018-11-25T16:45:03.826Z,15.55
2018-11-25T16:47:33.698Z,13.50
2018-11-25T16:50:03.946Z,14.83
2018-11-25T16:52:33.877Z,15.78
2018-11-25T16:55:06.079Z,13.85
2018-11-25T16:57:37.990Z,14.23
2018-11-25T17:00:13.554Z,13.70
2018-11-25T17:02:43.370Z,14.07
2018-11-25T17:05:17.400Z,16.17
2018-11-25T17:07:53.498Z,14.47
2018-11-25T17:10:28.618Z,15.32
2018-11-25T17:13:01.878Z,14.38
2018-11-25T17:15:31.677Z,14.35
2018-11-25T17:18:04.578Z,14.20
2018-11-25T17:20:36.402Z,13.75
2018-11-25T17:23:08.038Z,14.28
2018-11-25T17:25:41.650Z,12.10
2018-11-25T17:28:13.475Z,11.68
2018-11-25T17:30:43.394Z,12.28
2018-11-25T17:33:14.194Z,11.18
2018-11-25T17:35:45.649Z,11.73
2018-11-25T17:38:17.433Z,12.15
2018-11-25T17:40:49.585Z,11.45
2018-11-25T17:43:22.925Z,11.25
2018-11-25T17:45:54.754Z,11.43
2018-11-25T17:48:24.686Z,9.15
2018-11-25T17:50:55.599Z,9.30
2018-11-25T17:53:25.638Z,9.38
2018-11-25T17:55:56.595Z,10.32
2018-11-25T17:58:26.407Z,10.68
2018-11-25T18:00:59.814Z,10.18
2018-11-25T18:03:36.250Z,10.43
2018-11-25T18:06:10.918Z,10.32
2018-11-25T18:08:42.010Z,10.38
2018-11-25T18:11:11.814Z,9.50
2018-11-25T18:13:42.322Z,11.50
2018-11-25T18:16:15.394Z,11.43
2018-11-25T18:18:57.622Z,10.50
2018-11-25T18:21:28.519Z,9.55
2018-11-25T18:23:58.386Z,9.48
2018-11-25T18:26:29.798Z,9.05
2018-11-25T18:29:03.370Z,9.78
2018-11-25T18:31:37.959Z,11.28
2018-11-25T18:34:08.782Z,9.05
2018-11-25T18:36:43.102Z,9.10
2018-11-25T18:39:13.969Z,10.28
2018-11-25T18:41:43.826Z,10.72
2018-11-25T18:44:17.102Z,10.13
2018-11-25T18:46:50.698Z,9.78
2018-11-25T18:49:20.766Z,10.40
2018-11-25T18:51:51.591Z,9.35
2018-11-25T18:54:21.469Z,9.03
2018-11-25T18:56:51.310Z,9.95
2018-11-25T18:59:21.210Z,11.08
2018-11-25T19:01:58.980Z,10.68
2018-11-25T19:04:29.750Z,8.83
2018-11-25T19:07:00.626Z,9.75
2018-11-25T19:09:30.434Z,9.55
2018-11-25T19:12:03.687Z,9.38
2018-11-25T19:14:38.406Z,10.40
2018-11-25T19:17:11.515Z,10.28
2018-11-25T19:19:41.338Z,10.00
2018-11-25T19:22:11.279Z,9.95
2018-11-25T19:24:44.518Z,9.40
2018-11-25T19:27:16.410Z,8.85
2018-11-25T19:29:46.316Z,9.55
2018-11-25T19:32:16.330Z,10.10
2018-11-25T19:34:46.282Z,9.33
2018-11-25T19:37:16.227Z,10.05
2018-11-25T19:39:46.195Z,10.80
2018-11-25T19:42:18.067Z,9.18
2018-11-25T19:44:47.979Z,9.08
2018-11-25T19:47:17.995Z,9.48
2018-11-25T19:49:49.895Z,10.60
2018-11-25T19:52:20.000Z,9.40
2018-11-25T19:54:50.938Z,9.25
2018-11-25T19:57:22.911Z,55.35
2018-11-25T19:59:54.143Z,9.93
2018-11-25T20:02:26.349Z,9.20
2018-11-25T20:04:56.195Z,8.85
2018-11-25T20:07:27.884Z,10.35
2018-11-25T20:09:58.827Z,11.80
2018-11-25T20:12:34.178Z,7.85
2018-11-25T20:15:04.115Z,9.70
2018-11-25T20:17:40.090Z,8.80
2018-11-25T20:20:14.599Z,9.73
2018-11-25T20:22:44.558Z,10.23
2018-11-25T20:25:19.043Z,9.30
2018-11-25T20:27:52.087Z,9.45
2018-11-25T20:30:29.255Z,10.50
2018-11-25T20:33:04.476Z,9.50
2018-11-25T20:35:35.543Z,9.55
2018-11-25T20:38:11.266Z,9.58
2018-11-25T20:40:46.343Z,10.28
2018-11-25T20:43:17.327Z,10.03
2018-11-25T20:45:54.511Z,9.90
2018-11-25T20:48:24.526Z,8.98
2018-11-25T20:50:54.526Z,9.78
2018-11-25T20:53:30.703Z,10.50
2018-11-25T20:56:01.793Z,10.40
2018-11-25T20:58:34.820Z,10.55
2018-11-25T21:01:04.774Z,11.38
2018-11-25T21:03:34.695Z,11.08
2018-11-25T21:06:04.600Z,10.10
2018-11-25T21:08:35.575Z,11.78
2018-11-25T21:11:07.457Z,11.15
2018-11-25T21:13:37.432Z,10.68
2018-11-25T21:16:11.396Z,11.20
2018-11-25T21:18:44.339Z,11.28
2018-11-25T21:21:20.883Z,12.43
2018-11-25T21:23:52.799Z,9.80
2018-11-25T21:26:22.750Z,12.28
2018-11-25T21:28:53.726Z,11.57
2018-11-25T21:31:25.667Z,11.53
2018-11-25T21:33:56.555Z,11.40
2018-11-25T21:36:27.419Z,12.43
2018-11-25T21:38:59.266Z,12.20
2018-11-25T21:41:30.115Z,12.88
2018-11-25T21:44:01.050Z,13.30
2018-11-25T21:46:34.375Z,12.25
2018-11-25T21:49:08.011Z,12.33
2018-11-25T21:51:37.914Z,40.50
2018-11-25T21:54:08.747Z,13.88
2018-11-25T21:56:39.641Z,12.75
2018-11-25T21:59:12.783Z,13.95
2018-11-25T22:01:43.651Z,12.53
2018-11-25T22:04:14.440Z,15.48
2018-11-25T22:06:44.255Z,12.78
2018-11-25T22:09:15.108Z,12.40
2018-11-25T22:11:48.699Z,12.28
2018-11-25T22:14:22.571Z,12.58
2018-11-25T22:16:52.432Z,13.58
2018-11-25T22:19:24.273Z,13.13
2018-11-25T22:21:56.131Z,14.10
2018-11-25T22:24:27.891Z,13.48
2018-11-25T22:26:58.739Z,14.68
2018-11-25T22:29:28.647Z,13.55
2018-11-25T22:31:58.487Z,11.78
2018-11-25T22:34:31.251Z,14.25
2018-11-25T22:37:02.092Z,14.33
2018-11-25T22:39:32.007Z,13.80
2018-11-25T22:42:01.970Z,12.65
2018-11-25T22:44:32.111Z,13.70
2018-11-25T22:50:18.267Z,14.90
2018-11-25T22:52:48.276Z,15.40
2018-11-25T22:55:26.210Z,13.72
2018-11-25T22:57:56.007Z,14.13
2018-11-25T23:00:30.040Z,15.18
2018-11-25T23:03:00.886Z,13.60
2018-11-25T23:05:49.702Z,15.45
2018-11-25T23:08:19.599Z,13.60
2018-11-25T23:10:50.415Z,14.18
2018-11-25T23:13:20.267Z,14.78
2018-11-25T23:15:52.101Z,14.65
2018-11-25T23:18:22.027Z,15.43
2018-11-25T23:20:52.703Z,15.48
2018-11-25T23:23:22.543Z,16.87
2018-11-25T23:25:53.369Z,16.25
2018-11-25T23:28:23.227Z,15.65
2018-11-25T23:30:57.418Z,17.75
2018-11-25T23:33:27.348Z,16.67
2018-11-25T23:35:57.171Z,16.20
2018-11-25T23:38:27.079Z,15.25
2018-11-25T23:41:01.694Z,16.00
2018-11-25T23:43:31.509Z,16.80
2018-11-25T23:46:02.391Z,15.80
2018-11-25T23:48:33.211Z,16.90
2018-11-25T23:51:03.428Z,16.77
2018-11-25T23:53:33.203Z,15.83
2018-11-25T23:56:03.284Z,16.87
2018-11-25T23:58:33.087Z,16.20
